sensor_id;sensor_type;location;lat;lon;timestamp;temperature;humidity
20459;DHT22;10388;52.314;7.938;2023-08-12T00:03:22;18.90;99.90
20459;DHT22;10388;52.314;7.938;2023-08-12T00:05:54;19.10;99.90
20459;DHT22;10388;52.314;7.938;2023-08-12T00:08:31;19.00;99.90
20459;DHT22;10388;52.314;7.938;2023-08-12T00:11:02;19.10;99.90
20459;DHT22;10388;52.314;7.938;2023-08-12T00:13:35;19.00;99.90
20459;DHT22;10388;52.314;7.938;2023-08-12T00:16:05;19.00;99.90
20459;DHT22;10388;52.314;7.938;2023-08-12T00:18:36;19.10;99.90
20459;DHT22;10388;52.314;7.938;2023-08-12T00:21:07;19.00;99.90
20459;DHT22;10388;52.314;7.938;2023-08-12T00:23:41;19.20;99.90
20459;DHT22;10388;52.314;7.938;2023-08-12T00:26:11;19.00;99.90
20459;DHT22;10388;52.314;7.938;2023-08-12T00:28:42;19.10;99.90
20459;DHT22;10388;52.314;7.938;2023-08-12T00:31:12;19.10;99.90
20459;DHT22;10388;52.314;7.938;2023-08-12T00:33:49;19.00;99.90
20459;DHT22;10388;52.314;7.938;2023-08-12T00:36:35;19.00;99.90
20459;DHT22;10388;52.314;7.938;2023-08-12T00:39:07;19.30;99.90
20459;DHT22;10388;52.314;7.938;2023-08-12T00:41:37;19.10;99.90
20459;DHT22;10388;52.314;7.938;2023-08-12T00:44:08;19.10;99.90
20459;DHT22;10388;52.314;7.938;2023-08-12T00:46:41;19.30;99.90
20459;DHT22;10388;52.314;7.938;2023-08-12T00:49:12;19.10;99.90
20459;DHT22;10388;52.314;7.938;2023-08-12T00:51:44;19.10;99.90
20459;DHT22;10388;52.314;7.938;2023-08-12T00:54:16;19.10;99.90
20459;DHT22;10388;52.314;7.938;2023-08-12T00:56:49;19.00;99.90
20459;DHT22;10388;52.314;7.938;2023-08-12T00:59:20;19.10;99.90
20459;DHT22;10388;52.314;7.938;2023-08-12T01:01:51;19.10;99.90
20459;DHT22;10388;52.314;7.938;2023-08-12T01:04:21;19.10;99.90
20459;DHT22;10388;52.314;7.938;2023-08-12T01:06:52;19.00;99.90
20459;DHT22;10388;52.314;7.938;2023-08-12T01:09:22;19.10;99.90
20459;DHT22;10388;52.314;7.938;2023-08-12T01:15:04;19.00;99.90
20459;DHT22;10388;52.314;7.938;2023-08-12T01:17:38;19.00;99.90
20459;DHT22;10388;52.314;7.938;2023-08-12T01:20:11;19.10;99.90
20459;DHT22;10388;52.314;7.938;2023-08-12T01:22:45;19.00;99.90
20459;DHT22;10388;52.314;7.938;2023-08-12T01:25:17;19.00;99.90
20459;DHT22;10388;52.314;7.938;2023-08-12T01:27:47;19.10;99.90
20459;DHT22;10388;52.314;7.938;2023-08-12T01:30:20;19.20;99.90
20459;DHT22;10388;52.314;7.938;2023-08-12T01:32:59;19.10;99.90
20459;DHT22;10388;52.314;7.938;2023-08-12T01:35:45;18.90;99.90
20459;DHT22;10388;52.314;7.938;2023-08-12T01:38:18;19.00;99.90
20459;DHT22;10388;52.314;7.938;2023-08-12T01:40:50;19.00;99.90
20459;DHT22;10388;52.314;7.938;2023-08-12T01:43:22;19.10;99.90
20459;DHT22;10388;52.314;7.938;2023-08-12T01:45:53;19.00;99.90
20459;DHT22;10388;52.314;7.938;2023-08-12T01:48:24;19.10;99.90
20459;DHT22;10388;52.314;7.938;2023-08-12T01:50:54;19.00;99.90
20459;DHT22;10388;52.314;7.938;2023-08-12T01:53:25;19.20;99.90
20459;DHT22;10388;52.314;7.938;2023-08-12T01:55:55;18.90;99.90
20459;DHT22;10388;52.314;7.938;2023-08-12T01:58:26;18.70;99.90
20459;DHT22;10388;52.314;7.938;2023-08-12T02:00:57;19.10;99.90
20459;DHT22;10388;52.314;7.938;2023-08-12T02:03:27;19.00;99.90
20459;DHT22;10388;52.314;7.938;2023-08-12T02:05:58;19.00;99.90
20459;DHT22;10388;52.314;7.938;2023-08-12T02:08:28;19.20;99.90
20459;DHT22;10388;52.314;7.938;2023-08-12T02:10:59;19.10;99.90
20459;DHT22;10388;52.314;7.938;2023-08-12T02:13:30;19.20;99.90
20459;DHT22;10388;52.314;7.938;2023-08-12T02:16:00;19.00;99.90
20459;DHT22;10388;52.314;7.938;2023-08-12T02:18:31;19.20;99.90
20459;DHT22;10388;52.314;7.938;2023-08-12T02:21:01;19.00;99.90
20459;DHT22;10388;52.314;7.938;2023-08-12T02:23:32;18.90;99.90
20459;DHT22;10388;52.314;7.938;2023-08-12T02:26:03;19.20;99.90
20459;DHT22;10388;52.314;7.938;2023-08-12T02:28:33;18.90;99.90
20459;DHT22;10388;52.314;7.938;2023-08-12T02:31:04;19.30;99.90
20459;DHT22;10388;52.314;7.938;2023-08-12T02:33:34;19.20;99.90
20459;DHT22;10388;52.314;7.938;2023-08-12T02:36:05;19.00;99.90
20459;DHT22;10388;52.314;7.938;2023-08-12T02:38:36;19.00;99.90
20459;DHT22;10388;52.314;7.938;2023-08-12T02:41:06;19.00;99.90
20459;DHT22;10388;52.314;7.938;2023-08-12T02:43:37;18.90;99.90
20459;DHT22;10388;52.314;7.938;2023-08-12T02:46:07;19.00;99.90
20459;DHT22;10388;52.314;7.938;2023-08-12T02:48:38;19.10;99.90
20459;DHT22;10388;52.314;7.938;2023-08-12T02:51:09;19.00;99.90
20459;DHT22;10388;52.314;7.938;2023-08-12T02:53:40;19.10;99.90
20459;DHT22;10388;52.314;7.938;2023-08-12T02:56:10;19.10;99.90
20459;DHT22;10388;52.314;7.938;2023-08-12T02:58:41;19.00;99.90
20459;DHT22;10388;52.314;7.938;2023-08-12T03:01:11;18.90;99.90
20459;DHT22;10388;52.314;7.938;2023-08-12T03:03:42;19.00;99.90
20459;DHT22;10388;52.314;7.938;2023-08-12T03:06:12;18.80;99.90
20459;DHT22;10388;52.314;7.938;2023-08-12T03:08:43;18.90;99.90
20459;DHT22;10388;52.314;7.938;2023-08-12T03:11:13;18.90;99.90
20459;DHT22;10388;52.314;7.938;2023-08-12T03:13:45;18.90;99.90
20459;DHT22;10388;52.314;7.938;2023-08-12T03:16:16;19.00;99.90
20459;DHT22;10388;52.314;7.938;2023-08-12T03:18:47;19.00;99.90
20459;DHT22;10388;52.314;7.938;2023-08-12T03:21:17;19.00;99.90
20459;DHT22;10388;52.314;7.938;2023-08-12T03:23:48;18.90;99.90
20459;DHT22;10388;52.314;7.938;2023-08-12T03:26:18;19.00;99.90
20459;DHT22;10388;52.314;7.938;2023-08-12T03:28:49;19.20;99.90
20459;DHT22;10388;52.314;7.938;2023-08-12T03:31:45;19.10;99.90
20459;DHT22;10388;52.314;7.938;2023-08-12T03:34:16;18.80;99.90
20459;DHT22;10388;52.314;7.938;2023-08-12T03:36:46;19.40;99.90
20459;DHT22;10388;52.314;7.938;2023-08-12T03:39:18;19.10;99.90
20459;DHT22;10388;52.314;7.938;2023-08-12T03:41:52;19.20;99.90
20459;DHT22;10388;52.314;7.938;2023-08-12T03:44:23;19.20;99.90
20459;DHT22;10388;52.314;7.938;2023-08-12T03:46:54;18.90;99.90
20459;DHT22;10388;52.314;7.938;2023-08-12T03:49:25;19.10;99.90
20459;DHT22;10388;52.314;7.938;2023-08-12T03:51:55;19.00;99.90
20459;DHT22;10388;52.314;7.938;2023-08-12T03:54:26;19.10;99.90
20459;DHT22;10388;52.314;7.938;2023-08-12T03:56:56;19.00;99.90
20459;DHT22;10388;52.314;7.938;2023-08-12T03:59:27;19.30;99.90
20459;DHT22;10388;52.314;7.938;2023-08-12T04:01:57;19.30;99.90
20459;DHT22;10388;52.314;7.938;2023-08-12T04:04:31;19.20;99.90
20459;DHT22;10388;52.314;7.938;2023-08-12T04:07:01;19.00;99.90
20459;DHT22;10388;52.314;7.938;2023-08-12T04:09:32;19.00;99.90
20459;DHT22;10388;52.314;7.938;2023-08-12T04:12:03;19.10;99.90
20459;DHT22;10388;52.314;7.938;2023-08-12T04:14:33;19.00;99.90
20459;DHT22;10388;52.314;7.938;2023-08-12T04:17:04;19.10;99.90
20459;DHT22;10388;52.314;7.938;2023-08-12T04:19:34;19.00;99.90
20459;DHT22;10388;52.314;7.938;2023-08-12T04:22:05;19.30;99.90
20459;DHT22;10388;52.314;7.938;2023-08-12T04:24:36;19.30;99.90
20459;DHT22;10388;52.314;7.938;2023-08-12T04:27:06;18.90;99.90
20459;DHT22;10388;52.314;7.938;2023-08-12T04:29:37;19.30;99.90
20459;DHT22;10388;52.314;7.938;2023-08-12T04:32:07;19.10;99.90
20459;DHT22;10388;52.314;7.938;2023-08-12T04:34:38;19.10;99.90
20459;DHT22;10388;52.314;7.938;2023-08-12T04:37:08;19.00;99.90
20459;DHT22;10388;52.314;7.938;2023-08-12T04:39:39;19.10;99.90
20459;DHT22;10388;52.314;7.938;2023-08-12T04:42:10;19.00;99.90
20459;DHT22;10388;52.314;7.938;2023-08-12T04:44:41;19.20;99.90
20459;DHT22;10388;52.314;7.938;2023-08-12T04:47:11;19.10;99.90
20459;DHT22;10388;52.314;7.938;2023-08-12T04:49:42;19.20;99.90
20459;DHT22;10388;52.314;7.938;2023-08-12T04:52:12;19.30;99.90
20459;DHT22;10388;52.314;7.938;2023-08-12T04:54:43;18.90;99.90
20459;DHT22;10388;52.314;7.938;2023-08-12T04:57:14;19.10;99.90
20459;DHT22;10388;52.314;7.938;2023-08-12T04:59:44;19.20;99.90
20459;DHT22;10388;52.314;7.938;2023-08-12T05:02:15;19.00;99.90
20459;DHT22;10388;52.314;7.938;2023-08-12T05:04:49;19.20;99.90
20459;DHT22;10388;52.314;7.938;2023-08-12T05:07:20;19.30;99.90
20459;DHT22;10388;52.314;7.938;2023-08-12T05:09:50;19.00;99.90
20459;DHT22;10388;52.314;7.938;2023-08-12T05:12:21;19.00;99.90
20459;DHT22;10388;52.314;7.938;2023-08-12T05:14:51;19.20;99.90
20459;DHT22;10388;52.314;7.938;2023-08-12T05:17:22;19.40;99.90
20459;DHT22;10388;52.314;7.938;2023-08-12T05:19:53;19.10;99.90
20459;DHT22;10388;52.314;7.938;2023-08-12T05:22:23;19.30;99.90
20459;DHT22;10388;52.314;7.938;2023-08-12T05:24:57;19.20;99.90
20459;DHT22;10388;52.314;7.938;2023-08-12T05:27:27;19.40;99.90
20459;DHT22;10388;52.314;7.938;2023-08-12T05:29:58;19.10;99.90
20459;DHT22;10388;52.314;7.938;2023-08-12T05:32:28;19.30;99.90
20459;DHT22;10388;52.314;7.938;2023-08-12T05:34:59;19.10;99.90
20459;DHT22;10388;52.314;7.938;2023-08-12T05:37:30;19.30;99.90
20459;DHT22;10388;52.314;7.938;2023-08-12T05:40:00;19.40;99.90
20459;DHT22;10388;52.314;7.938;2023-08-12T05:42:31;19.40;99.90
20459;DHT22;10388;52.314;7.938;2023-08-12T05:45:02;19.50;99.90
20459;DHT22;10388;52.314;7.938;2023-08-12T05:47:33;19.30;99.90
20459;DHT22;10388;52.314;7.938;2023-08-12T05:50:04;19.70;99.90
20459;DHT22;10388;52.314;7.938;2023-08-12T05:52:36;19.40;99.90
20459;DHT22;10388;52.314;7.938;2023-08-12T05:55:07;19.70;99.90
20459;DHT22;10388;52.314;7.938;2023-08-12T05:57:37;19.40;99.90
20459;DHT22;10388;52.314;7.938;2023-08-12T06:00:08;19.70;99.90
20459;DHT22;10388;52.314;7.938;2023-08-12T06:02:45;19.40;99.90
20459;DHT22;10388;52.314;7.938;2023-08-12T06:05:16;19.70;99.90
20459;DHT22;10388;52.314;7.938;2023-08-12T06:07:46;19.40;99.90
20459;DHT22;10388;52.314;7.938;2023-08-12T06:10:17;19.70;99.90
20459;DHT22;10388;52.314;7.938;2023-08-12T06:12:48;19.60;99.90
20459;DHT22;10388;52.314;7.938;2023-08-12T06:15:18;19.80;99.90
20459;DHT22;10388;52.314;7.938;2023-08-12T06:17:55;19.90;99.90
20459;DHT22;10388;52.314;7.938;2023-08-12T06:20:26;19.80;99.90
20459;DHT22;10388;52.314;7.938;2023-08-12T06:22:56;19.70;99.90
20459;DHT22;10388;52.314;7.938;2023-08-12T06:25:27;19.70;99.90
20459;DHT22;10388;52.314;7.938;2023-08-12T06:27:58;19.80;99.90
20459;DHT22;10388;52.314;7.938;2023-08-12T06:30:28;19.90;99.90
20459;DHT22;10388;52.314;7.938;2023-08-12T06:32:59;20.00;99.90
20459;DHT22;10388;52.314;7.938;2023-08-12T06:35:30;19.90;99.90
20459;DHT22;10388;52.314;7.938;2023-08-12T06:38:00;20.20;99.90
20459;DHT22;10388;52.314;7.938;2023-08-12T06:40:33;20.20;99.90
20459;DHT22;10388;52.314;7.938;2023-08-12T06:43:04;19.80;99.90
20459;DHT22;10388;52.314;7.938;2023-08-12T06:45:35;20.00;99.90
20459;DHT22;10388;52.314;7.938;2023-08-12T06:48:05;20.20;99.90
20459;DHT22;10388;52.314;7.938;2023-08-12T06:50:36;20.10;99.90
20459;DHT22;10388;52.314;7.938;2023-08-12T06:53:06;20.30;99.90
20459;DHT22;10388;52.314;7.938;2023-08-12T06:55:43;20.30;99.90
20459;DHT22;10388;52.314;7.938;2023-08-12T06:58:14;20.40;99.90
20459;DHT22;10388;52.314;7.938;2023-08-12T07:00:47;20.60;99.90
20459;DHT22;10388;52.314;7.938;2023-08-12T07:03:18;20.70;99.90
20459;DHT22;10388;52.314;7.938;2023-08-12T07:05:49;20.80;99.90
20459;DHT22;10388;52.314;7.938;2023-08-12T07:08:19;20.70;99.90
20459;DHT22;10388;52.314;7.938;2023-08-12T07:10:50;20.60;99.90
20459;DHT22;10388;52.314;7.938;2023-08-12T07:13:20;21.00;99.90
20459;DHT22;10388;52.314;7.938;2023-08-12T07:15:54;20.70;99.90
20459;DHT22;10388;52.314;7.938;2023-08-12T07:18:24;20.80;99.90
20459;DHT22;10388;52.314;7.938;2023-08-12T07:20:55;20.60;99.90
20459;DHT22;10388;52.314;7.938;2023-08-12T07:23:25;20.70;99.90
20459;DHT22;10388;52.314;7.938;2023-08-12T07:25:56;20.60;99.90
20459;DHT22;10388;52.314;7.938;2023-08-12T07:28:27;20.50;99.90
20459;DHT22;10388;52.314;7.938;2023-08-12T07:31:01;20.30;99.90
20459;DHT22;10388;52.314;7.938;2023-08-12T07:33:31;20.40;99.90
20459;DHT22;10388;52.314;7.938;2023-08-12T07:36:02;20.50;99.90
20459;DHT22;10388;52.314;7.938;2023-08-12T07:38:33;20.40;99.90
20459;DHT22;10388;52.314;7.938;2023-08-12T07:41:03;20.60;99.90
20459;DHT22;10388;52.314;7.938;2023-08-12T07:43:34;20.40;99.90
20459;DHT22;10388;52.314;7.938;2023-08-12T07:46:05;20.20;99.90
20459;DHT22;10388;52.314;7.938;2023-08-12T07:48:35;20.40;99.90
20459;DHT22;10388;52.314;7.938;2023-08-12T07:51:06;20.50;99.90
20459;DHT22;10388;52.314;7.938;2023-08-12T07:53:37;20.10;99.90
20459;DHT22;10388;52.314;7.938;2023-08-12T07:56:08;20.40;99.90
20459;DHT22;10388;52.314;7.938;2023-08-12T07:58:39;20.40;99.90
20459;DHT22;10388;52.314;7.938;2023-08-12T08:01:09;20.60;99.90
20459;DHT22;10388;52.314;7.938;2023-08-12T08:03:40;20.40;99.90
20459;DHT22;10388;52.314;7.938;2023-08-12T08:06:10;20.40;99.90
20459;DHT22;10388;52.314;7.938;2023-08-12T08:08:41;20.70;99.90
20459;DHT22;10388;52.314;7.938;2023-08-12T08:11:11;20.40;99.90
20459;DHT22;10388;52.314;7.938;2023-08-12T08:13:42;20.40;99.90
20459;DHT22;10388;52.314;7.938;2023-08-12T08:16:13;20.30;99.90
20459;DHT22;10388;52.314;7.938;2023-08-12T08:18:43;20.40;99.90
20459;DHT22;10388;52.314;7.938;2023-08-12T08:21:14;20.30;99.90
20459;DHT22;10388;52.314;7.938;2023-08-12T08:23:45;20.40;99.90
20459;DHT22;10388;52.314;7.938;2023-08-12T08:26:15;20.20;99.90
20459;DHT22;10388;52.314;7.938;2023-08-12T08:28:47;20.20;99.90
20459;DHT22;10388;52.314;7.938;2023-08-12T08:31:18;20.40;99.90
20459;DHT22;10388;52.314;7.938;2023-08-12T08:33:49;20.30;99.90
20459;DHT22;10388;52.314;7.938;2023-08-12T08:36:20;20.60;99.90
20459;DHT22;10388;52.314;7.938;2023-08-12T08:38:50;20.20;99.90
20459;DHT22;10388;52.314;7.938;2023-08-12T08:41:21;20.20;99.90
20459;DHT22;10388;52.314;7.938;2023-08-12T08:43:55;20.30;99.90
20459;DHT22;10388;52.314;7.938;2023-08-12T08:46:26;20.20;99.90
20459;DHT22;10388;52.314;7.938;2023-08-12T08:48:59;20.20;99.90
20459;DHT22;10388;52.314;7.938;2023-08-12T08:51:31;20.20;99.90
20459;DHT22;10388;52.314;7.938;2023-08-12T08:54:03;20.20;99.90
20459;DHT22;10388;52.314;7.938;2023-08-12T08:56:34;20.20;99.90
20459;DHT22;10388;52.314;7.938;2023-08-12T08:59:05;20.20;99.90
20459;DHT22;10388;52.314;7.938;2023-08-12T09:01:36;20.20;99.90
20459;DHT22;10388;52.314;7.938;2023-08-12T09:04:07;20.10;99.90
20459;DHT22;10388;52.314;7.938;2023-08-12T09:06:39;20.10;99.90
20459;DHT22;10388;52.314;7.938;2023-08-12T09:09:13;20.10;99.90
20459;DHT22;10388;52.314;7.938;2023-08-12T09:11:47;20.10;99.90
20459;DHT22;10388;52.314;7.938;2023-08-12T09:14:18;20.10;99.90
20459;DHT22;10388;52.314;7.938;2023-08-12T09:16:48;20.10;99.90
20459;DHT22;10388;52.314;7.938;2023-08-12T09:19:19;20.10;99.90
20459;DHT22;10388;52.314;7.938;2023-08-12T09:21:54;20.10;99.90
20459;DHT22;10388;52.314;7.938;2023-08-12T09:24:25;20.10;99.90
20459;DHT22;10388;52.314;7.938;2023-08-12T09:26:56;20.00;99.90
20459;DHT22;10388;52.314;7.938;2023-08-12T09:29:35;20.00;99.90
20459;DHT22;10388;52.314;7.938;2023-08-12T09:32:13;20.10;99.90
20459;DHT22;10388;52.314;7.938;2023-08-12T09:34:54;20.00;99.90
20459;DHT22;10388;52.314;7.938;2023-08-12T09:37:25;20.00;99.90
20459;DHT22;10388;52.314;7.938;2023-08-12T09:39:56;20.10;99.90
20459;DHT22;10388;52.314;7.938;2023-08-12T09:42:28;20.10;99.90
20459;DHT22;10388;52.314;7.938;2023-08-12T09:44:58;20.10;99.90
20459;DHT22;10388;52.314;7.938;2023-08-12T09:47:29;20.10;99.90
20459;DHT22;10388;52.314;7.938;2023-08-12T09:50:01;20.10;99.90
20459;DHT22;10388;52.314;7.938;2023-08-12T09:52:32;20.10;99.90
20459;DHT22;10388;52.314;7.938;2023-08-12T09:55:03;20.10;99.90
20459;DHT22;10388;52.314;7.938;2023-08-12T09:57:36;20.10;99.90
20459;DHT22;10388;52.314;7.938;2023-08-12T10:00:12;20.10;99.90
20459;DHT22;10388;52.314;7.938;2023-08-12T10:02:51;20.20;99.90
20459;DHT22;10388;52.314;7.938;2023-08-12T10:05:27;20.10;99.90
20459;DHT22;10388;52.314;7.938;2023-08-12T10:07:58;20.20;99.90
20459;DHT22;10388;52.314;7.938;2023-08-12T10:10:34;20.30;99.90
20459;DHT22;10388;52.314;7.938;2023-08-12T10:13:05;20.30;99.90
20459;DHT22;10388;52.314;7.938;2023-08-12T10:15:37;20.30;99.90
20459;DHT22;10388;52.314;7.938;2023-08-12T10:18:08;20.40;99.90
20459;DHT22;10388;52.314;7.938;2023-08-12T10:20:40;20.40;99.90
20459;DHT22;10388;52.314;7.938;2023-08-12T10:23:15;20.50;99.90
20459;DHT22;10388;52.314;7.938;2023-08-12T10:25:47;20.50;99.90
20459;DHT22;10388;52.314;7.938;2023-08-12T10:28:20;20.50;99.90
20459;DHT22;10388;52.314;7.938;2023-08-12T10:30:51;20.50;99.90
20459;DHT22;10388;52.314;7.938;2023-08-12T10:33:22;20.50;99.90
20459;DHT22;10388;52.314;7.938;2023-08-12T10:35:55;20.40;99.90
20459;DHT22;10388;52.314;7.938;2023-08-12T10:38:26;20.40;99.90
20459;DHT22;10388;52.314;7.938;2023-08-12T10:41:19;20.40;99.90
20459;DHT22;10388;52.314;7.938;2023-08-12T10:46:23;20.40;99.90
20459;DHT22;10388;52.314;7.938;2023-08-12T10:51:45;20.40;99.90
20459;DHT22;10388;52.314;7.938;2023-08-12T10:54:24;20.40;99.90
20459;DHT22;10388;52.314;7.938;2023-08-12T10:57:06;20.40;99.90
20459;DHT22;10388;52.314;7.938;2023-08-12T11:02:30;20.40;99.90
20459;DHT22;10388;52.314;7.938;2023-08-12T11:05:05;20.30;99.90
20459;DHT22;10388;52.314;7.938;2023-08-12T11:10:17;20.30;99.90
20459;DHT22;10388;52.314;7.938;2023-08-12T11:12:55;20.30;99.90
20459;DHT22;10388;52.314;7.938;2023-08-12T11:15:32;20.30;99.90
20459;DHT22;10388;52.314;7.938;2023-08-12T11:18:12;20.30;99.90
20459;DHT22;10388;52.314;7.938;2023-08-12T11:20:43;20.30;99.90
20459;DHT22;10388;52.314;7.938;2023-08-12T11:23:16;20.30;99.90
20459;DHT22;10388;52.314;7.938;2023-08-12T11:25:46;20.30;99.90
20459;DHT22;10388;52.314;7.938;2023-08-12T11:28:20;20.40;99.90
20459;DHT22;10388;52.314;7.938;2023-08-12T11:30:50;20.40;99.90
20459;DHT22;10388;52.314;7.938;2023-08-12T11:33:21;20.50;99.90
20459;DHT22;10388;52.314;7.938;2023-08-12T11:35:52;20.60;99.90
20459;DHT22;10388;52.314;7.938;2023-08-12T11:38:23;20.80;99.90
20459;DHT22;10388;52.314;7.938;2023-08-12T11:40:54;21.00;99.90
20459;DHT22;10388;52.314;7.938;2023-08-12T11:43:24;21.10;99.90
20459;DHT22;10388;52.314;7.938;2023-08-12T11:45:56;21.20;99.90
20459;DHT22;10388;52.314;7.938;2023-08-12T11:48:29;21.20;99.90
20459;DHT22;10388;52.314;7.938;2023-08-12T11:51:00;21.20;99.90
20459;DHT22;10388;52.314;7.938;2023-08-12T11:53:31;21.20;99.90
20459;DHT22;10388;52.314;7.938;2023-08-12T11:56:02;21.20;99.90
20459;DHT22;10388;52.314;7.938;2023-08-12T11:58:37;21.10;99.90
20459;DHT22;10388;52.314;7.938;2023-08-12T12:01:07;21.10;99.90
20459;DHT22;10388;52.314;7.938;2023-08-12T12:03:38;21.10;99.90
20459;DHT22;10388;52.314;7.938;2023-08-12T12:06:08;21.10;99.90
20459;DHT22;10388;52.314;7.938;2023-08-12T12:08:39;21.20;99.90
20459;DHT22;10388;52.314;7.938;2023-08-12T12:11:09;21.20;99.90
20459;DHT22;10388;52.314;7.938;2023-08-12T12:13:40;21.20;99.90
20459;DHT22;10388;52.314;7.938;2023-08-12T12:16:11;21.30;99.90
20459;DHT22;10388;52.314;7.938;2023-08-12T12:18:42;21.30;99.90
20459;DHT22;10388;52.314;7.938;2023-08-12T12:21:20;21.20;99.90
20459;DHT22;10388;52.314;7.938;2023-08-12T12:23:52;21.10;99.90
20459;DHT22;10388;52.314;7.938;2023-08-12T12:26:23;21.10;99.90
20459;DHT22;10388;52.314;7.938;2023-08-12T12:28:54;21.10;99.90
20459;DHT22;10388;52.314;7.938;2023-08-12T12:31:32;21.30;99.90
20459;DHT22;10388;52.314;7.938;2023-08-12T12:34:03;21.50;99.90
20459;DHT22;10388;52.314;7.938;2023-08-12T12:36:38;21.70;99.90
20459;DHT22;10388;52.314;7.938;2023-08-12T12:39:09;21.70;99.90
20459;DHT22;10388;52.314;7.938;2023-08-12T12:41:39;21.90;99.90
20459;DHT22;10388;52.314;7.938;2023-08-12T12:44:10;22.00;99.90
20459;DHT22;10388;52.314;7.938;2023-08-12T12:46:41;22.10;99.90
20459;DHT22;10388;52.314;7.938;2023-08-12T12:49:11;22.30;99.90
20459;DHT22;10388;52.314;7.938;2023-08-12T12:51:42;22.20;99.90
20459;DHT22;10388;52.314;7.938;2023-08-12T12:54:12;22.30;99.90
20459;DHT22;10388;52.314;7.938;2023-08-12T12:56:43;22.20;99.90
20459;DHT22;10388;52.314;7.938;2023-08-12T12:59:13;22.20;99.90
20459;DHT22;10388;52.314;7.938;2023-08-12T13:01:45;22.20;99.90
20459;DHT22;10388;52.314;7.938;2023-08-12T13:04:16;22.20;99.90
20459;DHT22;10388;52.314;7.938;2023-08-12T13:06:46;22.10;99.90
20459;DHT22;10388;52.314;7.938;2023-08-12T13:09:17;22.10;99.90
20459;DHT22;10388;52.314;7.938;2023-08-12T13:11:48;22.20;99.90
20459;DHT22;10388;52.314;7.938;2023-08-12T13:14:19;22.30;99.90
20459;DHT22;10388;52.314;7.938;2023-08-12T13:16:51;22.40;99.90
20459;DHT22;10388;52.314;7.938;2023-08-12T13:19:21;22.50;99.90
20459;DHT22;10388;52.314;7.938;2023-08-12T13:21:52;22.50;99.90
20459;DHT22;10388;52.314;7.938;2023-08-12T13:24:23;22.40;99.90
20459;DHT22;10388;52.314;7.938;2023-08-12T13:26:53;22.40;99.90
20459;DHT22;10388;52.314;7.938;2023-08-12T13:29:24;22.40;99.90
20459;DHT22;10388;52.314;7.938;2023-08-12T13:31:56;22.40;99.90
20459;DHT22;10388;52.314;7.938;2023-08-12T13:34:27;22.40;99.90
20459;DHT22;10388;52.314;7.938;2023-08-12T13:36:57;22.30;99.90
20459;DHT22;10388;52.314;7.938;2023-08-12T13:39:28;22.20;99.90
20459;DHT22;10388;52.314;7.938;2023-08-12T13:41:58;22.00;99.90
20459;DHT22;10388;52.314;7.938;2023-08-12T13:44:29;22.00;99.90
20459;DHT22;10388;52.314;7.938;2023-08-12T13:46:59;21.80;99.90
20459;DHT22;10388;52.314;7.938;2023-08-12T13:49:30;21.60;99.90
20459;DHT22;10388;52.314;7.938;2023-08-12T13:52:00;21.70;99.90
20459;DHT22;10388;52.314;7.938;2023-08-12T13:54:31;21.60;99.90
20459;DHT22;10388;52.314;7.938;2023-08-12T13:57:03;21.60;99.90
20459;DHT22;10388;52.314;7.938;2023-08-12T13:59:34;21.60;99.90
20459;DHT22;10388;52.314;7.938;2023-08-12T14:02:05;21.50;99.90
20459;DHT22;10388;52.314;7.938;2023-08-12T14:04:35;21.60;99.90
20459;DHT22;10388;52.314;7.938;2023-08-12T14:07:06;21.60;99.90
20459;DHT22;10388;52.314;7.938;2023-08-12T14:09:36;21.80;99.90
20459;DHT22;10388;52.314;7.938;2023-08-12T14:12:07;22.00;99.90
20459;DHT22;10388;52.314;7.938;2023-08-12T14:14:37;22.30;99.90
20459;DHT22;10388;52.314;7.938;2023-08-12T14:17:08;22.70;99.90
20459;DHT22;10388;52.314;7.938;2023-08-12T14:19:44;22.80;99.90
20459;DHT22;10388;52.314;7.938;2023-08-12T14:22:17;22.80;99.90
20459;DHT22;10388;52.314;7.938;2023-08-12T14:24:48;22.70;99.90
20459;DHT22;10388;52.314;7.938;2023-08-12T14:27:19;22.80;99.90
20459;DHT22;10388;52.314;7.938;2023-08-12T14:29:49;22.70;99.90
20459;DHT22;10388;52.314;7.938;2023-08-12T14:32:20;22.80;99.90
20459;DHT22;10388;52.314;7.938;2023-08-12T14:34:50;22.70;99.90
20459;DHT22;10388;52.314;7.938;2023-08-12T14:37:21;22.70;99.90
20459;DHT22;10388;52.314;7.938;2023-08-12T14:39:51;22.60;99.90
20459;DHT22;10388;52.314;7.938;2023-08-12T14:42:22;22.60;99.90
20459;DHT22;10388;52.314;7.938;2023-08-12T14:44:52;22.60;99.90
20459;DHT22;10388;52.314;7.938;2023-08-12T14:47:23;22.50;99.90
20459;DHT22;10388;52.314;7.938;2023-08-12T14:49:53;22.40;99.90
20459;DHT22;10388;52.314;7.938;2023-08-12T14:52:24;22.20;99.90
20459;DHT22;10388;52.314;7.938;2023-08-12T14:54:54;22.00;99.90
20459;DHT22;10388;52.314;7.938;2023-08-12T14:57:25;21.90;99.90
20459;DHT22;10388;52.314;7.938;2023-08-12T14:59:55;21.90;99.90
20459;DHT22;10388;52.314;7.938;2023-08-12T15:02:26;21.90;99.90
20459;DHT22;10388;52.314;7.938;2023-08-12T15:04:56;22.10;99.90
20459;DHT22;10388;52.314;7.938;2023-08-12T15:07:29;22.20;99.90
20459;DHT22;10388;52.314;7.938;2023-08-12T15:10:00;22.30;99.90
20459;DHT22;10388;52.314;7.938;2023-08-12T15:12:31;22.30;99.90
20459;DHT22;10388;52.314;7.938;2023-08-12T15:15:02;22.10;99.90
20459;DHT22;10388;52.314;7.938;2023-08-12T15:17:32;22.00;99.90
20459;DHT22;10388;52.314;7.938;2023-08-12T15:20:03;21.90;99.90
20459;DHT22;10388;52.314;7.938;2023-08-12T15:22:36;21.80;99.90
20459;DHT22;10388;52.314;7.938;2023-08-12T15:25:06;21.90;99.90
20459;DHT22;10388;52.314;7.938;2023-08-12T15:27:38;21.80;99.90
20459;DHT22;10388;52.314;7.938;2023-08-12T15:30:09;21.90;99.90
20459;DHT22;10388;52.314;7.938;2023-08-12T15:32:40;21.80;99.90
20459;DHT22;10388;52.314;7.938;2023-08-12T15:35:11;21.80;99.90
20459;DHT22;10388;52.314;7.938;2023-08-12T15:37:42;21.80;99.90
20459;DHT22;10388;52.314;7.938;2023-08-12T15:40:13;21.80;99.90
20459;DHT22;10388;52.314;7.938;2023-08-12T15:42:44;21.70;99.90
20459;DHT22;10388;52.314;7.938;2023-08-12T15:45:16;21.90;99.90
20459;DHT22;10388;52.314;7.938;2023-08-12T15:47:47;22.00;99.90
20459;DHT22;10388;52.314;7.938;2023-08-12T15:50:17;22.00;99.90
20459;DHT22;10388;52.314;7.938;2023-08-12T15:52:48;22.00;99.90
20459;DHT22;10388;52.314;7.938;2023-08-12T15:55:18;22.10;99.90
20459;DHT22;10388;52.314;7.938;2023-08-12T15:57:49;22.10;99.90
20459;DHT22;10388;52.314;7.938;2023-08-12T16:00:19;22.20;99.90
20459;DHT22;10388;52.314;7.938;2023-08-12T16:02:50;22.20;99.90
20459;DHT22;10388;52.314;7.938;2023-08-12T16:05:21;22.10;99.90
20459;DHT22;10388;52.314;7.938;2023-08-12T16:07:52;21.90;99.90
20459;DHT22;10388;52.314;7.938;2023-08-12T16:10:22;21.70;99.90
20459;DHT22;10388;52.314;7.938;2023-08-12T16:12:53;21.50;99.90